createdAt,value
2023-05-22T00:00:31.337Z,91.94
2023-05-22T00:01:31.325Z,91.84
2023-05-22T00:02:31.363Z,92.24
2023-05-22T00:03:31.318Z,92.75
2023-05-22T00:04:31.289Z,92.44
2023-05-22T00:05:31.330Z,91.74
2023-05-22T00:06:31.257Z,92.44
2023-05-22T00:07:31.248Z,92.95
2023-05-22T00:08:31.243Z,93.05
2023-05-22T00:09:31.221Z,93.20
2023-05-22T00:10:31.208Z,92.99
2023-05-22T00:11:31.194Z,93.40
2023-05-22T00:12:31.182Z,92.79
2023-05-22T00:13:31.197Z,92.39
2023-05-22T00:14:31.156Z,92.89
2023-05-22T00:15:31.147Z,95.01
2023-05-22T00:16:31.137Z,95.32
2023-05-22T00:17:31.148Z,95.62
2023-05-22T00:18:31.107Z,95.52
2023-05-22T00:19:31.259Z,95.72
2023-05-22T00:20:31.078Z,95.12
2023-05-22T00:21:31.071Z,94.41
2023-05-22T00:22:31.056Z,93.44
2023-05-22T00:23:31.044Z,92.63
2023-05-22T00:24:31.029Z,92.02
2023-05-22T00:25:31.016Z,91.62
2023-05-22T00:26:31.001Z,91.22
2023-05-22T00:27:30.988Z,91.52
2023-05-22T00:28:30.975Z,91.82
2023-05-22T00:29:30.998Z,92.63
2023-05-22T00:30:30.953Z,92.88
2023-05-22T00:31:30.938Z,93.65
2023-05-22T00:32:30.962Z,94.36
2023-05-22T00:33:30.918Z,94.86
2023-05-22T00:34:30.932Z,94.80
2023-05-22T00:35:30.897Z,94.29
2023-05-22T00:36:30.879Z,94.20
2023-05-22T00:37:30.863Z,93.89
2023-05-22T00:38:30.854Z,94.09
2023-05-22T00:39:30.839Z,95.61
2023-05-22T00:40:30.823Z,95.92
2023-05-22T00:41:30.819Z,96.52
2023-05-22T00:42:30.799Z,96.63
2023-05-22T00:43:30.784Z,96.92
2023-05-22T00:44:30.773Z,96.92
2023-05-22T00:45:30.791Z,96.52
2023-05-22T00:46:30.810Z,96.32
2023-05-22T00:47:30.757Z,95.81
2023-05-22T00:48:30.726Z,95.92
2023-05-22T00:49:30.713Z,95.86
2023-05-22T00:50:30.706Z,96.77
2023-05-22T00:51:30.701Z,97.28
2023-05-22T00:52:30.681Z,98.19
2023-05-22T00:53:30.674Z,98.08
2023-05-22T00:54:30.654Z,98.08
2023-05-22T00:55:30.658Z,98.29
2023-05-22T00:56:30.617Z,97.99
2023-05-22T00:57:30.616Z,97.58
2023-05-22T00:58:30.593Z,96.67
2023-05-22T00:59:30.585Z,96.47
2023-05-22T01:00:30.571Z,95.96
2023-05-22T01:01:30.599Z,95.96
2023-05-22T01:02:30.588Z,95.76
2023-05-22T01:03:30.577Z,95.35
2023-05-22T01:04:30.525Z,95.70
2023-05-22T01:05:30.506Z,97.79
2023-05-22T01:06:30.497Z,98.59
2023-05-22T01:07:30.481Z,98.49
2023-05-22T01:08:30.469Z,98.90
2023-05-22T01:09:30.456Z,98.79
2023-05-22T01:10:30.446Z,98.69
2023-05-22T01:11:30.432Z,98.29
2023-05-22T01:12:30.424Z,98.29
2023-05-22T01:13:30.407Z,97.99
2023-05-22T01:14:30.388Z,97.58
2023-05-22T01:15:30.391Z,97.79
2023-05-22T01:16:30.395Z,97.58
2023-05-22T01:17:30.405Z,97.63
2023-05-22T01:18:30.341Z,97.88
2023-05-22T01:19:30.414Z,98.23
2023-05-22T01:20:30.318Z,98.23
2023-05-22T01:21:30.380Z,98.33
2023-05-22T01:22:30.290Z,98.33
2023-05-22T01:23:30.291Z,98.33
2023-05-22T01:24:30.263Z,98.03
2023-05-22T01:25:30.258Z,97.83
2023-05-22T01:26:30.238Z,97.83
2023-05-22T01:27:30.220Z,97.93
2023-05-22T01:28:30.214Z,98.44
2023-05-22T01:29:30.218Z,98.13
2023-05-22T01:30:30.189Z,97.43
2023-05-22T01:31:30.173Z,97.22
2023-05-22T01:32:30.221Z,96.82
2023-05-22T01:33:30.219Z,96.41
2023-05-22T01:34:30.138Z,96.00
2023-05-22T01:35:30.128Z,96.21
2023-05-22T01:36:30.124Z,96.51
2023-05-22T01:37:30.101Z,96.11
2023-05-22T01:38:30.087Z,96.41
2023-05-22T01:39:30.083Z,96.31
2023-05-22T01:40:30.058Z,96.25
2023-05-22T01:41:30.048Z,97.83
2023-05-22T01:42:30.044Z,97.93
2023-05-22T01:43:30.029Z,98.44
2023-05-22T01:44:30.014Z,98.95
2023-05-22T01:45:30.029Z,99.24
2023-05-22T01:46:30.004Z,98.95
2023-05-22T01:47:30.032Z,98.44
2023-05-22T01:48:29.960Z,98.33
2023-05-22T01:49:29.977Z,98.28
2023-05-22T01:50:29.935Z,98.18
2023-05-22T01:51:29.922Z,97.37
2023-05-22T01:52:29.915Z,97.27
2023-05-22T01:53:29.892Z,97.67
2023-05-22T01:54:29.886Z,97.57
2023-05-22T01:55:29.874Z,97.37
2023-05-22T01:56:29.859Z,97.37
2023-05-22T01:57:29.846Z,96.96
2023-05-22T01:58:29.850Z,96.76
2023-05-22T01:59:29.822Z,96.45
2023-05-22T02:00:29.812Z,96.36
2023-05-22T02:01:29.917Z,96.56
2023-05-22T02:02:29.848Z,96.66
2023-05-22T02:03:29.939Z,97.37
2023-05-22T02:04:29.769Z,97.77
2023-05-22T02:05:29.892Z,97.77
2023-05-22T02:06:29.727Z,97.97
2023-05-22T02:07:29.715Z,97.82
2023-05-22T02:08:29.719Z,98.12
2023-05-22T02:09:29.693Z,98.12
2023-05-22T02:10:29.681Z,98.12
2023-05-22T02:11:29.664Z,97.92
2023-05-22T02:12:29.653Z,97.72
2023-05-22T02:13:29.638Z,97.41
2023-05-22T02:14:29.627Z,97.21
2023-05-22T02:15:29.617Z,97.05
2023-05-22T02:16:29.603Z,97.36
2023-05-22T02:17:29.615Z,97.36
2023-05-22T02:18:29.650Z,97.56
2023-05-22T02:19:29.689Z,97.76
2023-05-22T02:20:29.561Z,97.66
2023-05-22T02:21:29.571Z,97.66
2023-05-22T02:22:29.578Z,97.56
2023-05-22T02:23:29.657Z,97.46
2023-05-22T02:24:29.525Z,97.66
2023-05-22T02:25:29.523Z,97.56
2023-05-22T02:26:29.526Z,97.56
2023-05-22T02:27:29.461Z,97.56
2023-05-22T02:28:29.447Z,97.50
2023-05-22T02:29:29.438Z,97.71
2023-05-22T02:30:29.417Z,97.66
2023-05-22T02:31:29.484Z,97.66
2023-05-22T02:32:29.522Z,97.66
2023-05-22T02:33:29.380Z,97.46
2023-05-22T02:34:29.370Z,97.36
2023-05-22T02:35:29.354Z,97.76
2023-05-22T02:36:29.347Z,97.97
2023-05-22T02:37:29.354Z,97.86
2023-05-22T02:38:29.335Z,97.36
2023-05-22T02:39:29.302Z,97.36
2023-05-22T02:40:29.294Z,97.36
2023-05-22T02:41:29.280Z,97.76
2023-05-22T02:42:29.268Z,97.97
2023-05-22T02:43:29.249Z,97.86
2023-05-22T02:44:29.242Z,97.41
2023-05-22T02:45:29.231Z,97.71
2023-05-22T02:46:29.251Z,97.66
2023-05-22T02:47:29.239Z,97.16
2023-05-22T02:48:29.213Z,97.10
2023-05-22T02:49:29.173Z,96.89
2023-05-22T02:50:29.160Z,96.60
2023-05-22T02:51:29.144Z,95.98
2023-05-22T02:52:29.139Z,96.19
2023-05-22T02:53:29.152Z,95.78
2023-05-22T02:54:29.116Z,94.97
2023-05-22T02:55:29.098Z,95.22
2023-05-22T02:56:29.077Z,95.32
2023-05-22T02:57:29.065Z,95.22
2023-05-22T02:58:29.063Z,95.42
2023-05-22T02:59:29.038Z,95.52
2023-05-22T03:00:29.025Z,95.42
2023-05-22T03:01:29.049Z,95.62
2023-05-22T03:02:29.076Z,95.62
2023-05-22T03:03:29.110Z,96.53
2023-05-22T03:04:28.974Z,96.74
2023-05-22T03:05:28.959Z,96.64
2023-05-22T03:06:28.958Z,97.04
2023-05-22T03:07:28.935Z,96.94
2023-05-22T03:08:28.923Z,96.94
2023-05-22T03:09:28.949Z,96.53
2023-05-22T03:10:28.899Z,96.23
2023-05-22T03:11:28.880Z,95.97
2023-05-22T03:12:28.869Z,95.47
2023-05-22T03:13:28.863Z,94.95
2023-05-22T03:14:28.846Z,94.59
2023-05-22T03:15:28.840Z,94.79
2023-05-22T03:16:28.886Z,95.00
2023-05-22T03:17:28.832Z,95.10
2023-05-22T03:18:28.793Z,95.31
2023-05-22T03:19:28.824Z,95.31
2023-05-22T03:20:28.774Z,95.41
2023-05-22T03:21:28.754Z,97.44
2023-05-22T03:22:28.742Z,97.74
2023-05-22T03:23:28.731Z,97.95
2023-05-22T03:24:28.730Z,97.85
2023-05-22T03:25:28.803Z,97.60
2023-05-22T03:26:28.697Z,96.93
2023-05-22T03:27:28.672Z,98.62
2023-05-22T03:28:28.667Z,99.43
2023-05-22T03:29:28.654Z,99.83
2023-05-22T03:30:28.638Z,99.99
2023-05-22T03:31:28.629Z,99.99
2023-05-22T03:32:28.624Z,99.99
2023-05-22T03:33:28.626Z,99.99
2023-05-22T03:34:28.589Z,99.89
2023-05-22T03:35:28.576Z,99.89
2023-05-22T03:36:29.934Z,99.27
2023-05-22T03:37:28.548Z,99.38
2023-05-22T03:38:28.538Z,99.58
2023-05-22T03:39:28.538Z,99.48
2023-05-22T03:40:28.506Z,99.38
2023-05-22T03:41:28.626Z,99.27
2023-05-22T03:42:28.489Z,99.48
2023-05-22T03:43:28.476Z,99.07
2023-05-22T03:44:28.460Z,99.07
2023-05-22T03:45:28.514Z,98.16
2023-05-22T03:46:28.518Z,98.67
2023-05-22T03:47:28.431Z,98.57
2023-05-22T03:48:28.411Z,99.07
2023-05-22T03:49:28.390Z,98.77
2023-05-22T03:50:28.384Z,98.77
2023-05-22T03:51:28.366Z,98.46
2023-05-22T03:52:28.353Z,98.46
2023-05-22T03:53:28.440Z,98.57
2023-05-22T03:54:28.327Z,98.26
2023-05-22T03:55:28.312Z,98.16
2023-05-22T03:56:28.300Z,97.76
2023-05-22T03:57:28.311Z,97.45
2023-05-22T03:58:28.276Z,97.25
2023-05-22T03:59:28.267Z,97.04
2023-05-22T04:00:28.249Z,96.84
2023-05-22T04:01:28.234Z,96.68
2023-05-22T04:02:28.289Z,96.74
2023-05-22T04:03:28.396Z,96.94
2023-05-22T04:04:28.191Z,96.84
2023-05-22T04:05:28.340Z,96.74
2023-05-22T04:06:28.197Z,96.53
2023-05-22T04:07:28.156Z,96.64
2023-05-22T04:08:28.149Z,96.13
2023-05-22T04:09:28.132Z,95.83
2023-05-22T04:10:28.122Z,95.72
2023-05-22T04:12:28.092Z,95.68
2023-05-22T04:13:28.104Z,95.53
2023-05-22T04:14:28.063Z,95.73
2023-05-22T04:15:28.048Z,97.16
2023-05-22T04:16:28.095Z,97.86
2023-05-22T04:17:28.065Z,97.92
2023-05-22T04:18:28.011Z,97.61
2023-05-22T04:19:28.154Z,97.41
2023-05-22T04:20:27.996Z,96.80
2023-05-22T04:21:27.970Z,95.79
2023-05-22T04:22:27.960Z,96.00
2023-05-22T04:23:27.945Z,95.64
2023-05-22T04:24:28.007Z,95.34
2023-05-22T04:25:27.938Z,94.84
2023-05-22T04:26:27.906Z,94.53
2023-05-22T04:27:27.901Z,94.23
2023-05-22T04:28:27.886Z,93.92
2023-05-22T04:29:27.909Z,93.82
2023-05-22T04:30:27.852Z,93.52
2023-05-22T04:31:28.066Z,93.52
2023-05-22T04:32:27.942Z,93.21
2023-05-22T04:33:27.867Z,93.21
2023-05-22T04:34:27.933Z,93.37
2023-05-22T04:35:27.887Z,93.37
2023-05-22T04:36:27.814Z,93.37
2023-05-22T04:37:27.771Z,93.07
2023-05-22T04:38:27.752Z,92.41
2023-05-22T04:39:27.754Z,92.12
2023-05-22T04:40:27.729Z,91.71
2023-05-22T04:41:27.740Z,91.57
2023-05-22T04:42:27.704Z,90.96
2023-05-22T04:43:27.697Z,90.86
2023-05-22T04:44:27.685Z,91.26
2023-05-22T04:45:27.694Z,91.66
2023-05-22T04:46:27.675Z,91.36
2023-05-22T04:47:27.643Z,90.91
2023-05-22T04:48:27.626Z,91.32
2023-05-22T04:49:27.613Z,91.42
2023-05-22T04:50:27.598Z,91.07
2023-05-22T04:51:27.583Z,90.77
2023-05-22T04:52:27.571Z,90.32
2023-05-22T04:53:27.588Z,89.52
2023-05-22T04:54:27.545Z,90.12
2023-05-22T04:55:27.533Z,89.37
2023-05-22T04:56:35.449Z,88.97
2023-05-22T04:57:29.579Z,89.07
2023-05-22T04:58:27.494Z,88.76
2023-05-22T04:59:27.478Z,88.42
2023-05-22T05:00:27.468Z,88.02
2023-05-22T05:01:27.482Z,87.17
2023-05-22T05:02:27.491Z,86.87
2023-05-22T05:03:27.442Z,86.26
2023-05-22T05:04:27.419Z,86.06
2023-05-22T05:05:27.400Z,86.22
2023-05-22T05:06:27.487Z,86.16
2023-05-22T05:07:27.373Z,85.86
2023-05-22T05:08:27.364Z,85.55
2023-05-22T05:09:27.357Z,86.06
2023-05-22T05:10:27.335Z,86.91
2023-05-22T05:11:27.322Z,86.85
2023-05-22T05:12:27.306Z,88.36
2023-05-22T05:13:27.295Z,89.31
2023-05-22T05:14:27.284Z,89.31
2023-05-22T05:15:27.277Z,89.37
2023-05-22T05:16:27.309Z,88.97
2023-05-22T05:17:27.301Z,88.56
2023-05-22T05:18:27.232Z,88.47
2023-05-22T05:19:27.250Z,89.37
2023-05-22T05:20:27.206Z,89.17
2023-05-22T05:21:27.192Z,89.41
2023-05-22T05:22:27.177Z,90.08
2023-05-22T05:23:27.169Z,89.78
2023-05-22T05:24:27.151Z,89.98
2023-05-22T05:25:27.139Z,88.97
2023-05-22T05:26:27.161Z,89.23
2023-05-22T05:27:27.115Z,88.84
2023-05-22T05:28:27.106Z,86.88
2023-05-22T05:29:27.093Z,86.44
2023-05-22T05:30:27.075Z,85.54
2023-05-22T05:31:27.092Z,84.13
2023-05-22T05:32:27.077Z,84.53
2023-05-22T05:33:27.062Z,84.87
2023-05-22T05:34:27.022Z,85.88
2023-05-22T05:35:27.036Z,85.57
2023-05-22T05:36:27.003Z,84.87
2023-05-22T05:37:26.999Z,86.08
2023-05-22T05:38:26.971Z,86.90
2023-05-22T05:39:26.985Z,84.08
2023-05-22T05:40:26.948Z,82.94
2023-05-22T05:41:26.959Z,83.90
2023-05-22T05:42:26.923Z,82.76
2023-05-22T05:43:26.911Z,80.87
2023-05-22T05:44:26.894Z,80.01
2023-05-22T05:45:26.901Z,79.87
2023-05-22T05:46:26.939Z,79.76
2023-05-22T05:47:26.897Z,80.13
2023-05-22T05:48:26.844Z,79.29
2023-05-22T05:49:26.853Z,78.55
2023-05-22T05:50:26.839Z,79.18
2023-05-22T05:51:26.816Z,77.05
2023-05-22T05:52:26.796Z,77.24
2023-05-22T05:53:26.785Z,78.79
2023-05-22T05:54:26.780Z,78.52
2023-05-22T05:55:26.754Z,78.14
2023-05-22T05:56:26.741Z,78.47
2023-05-22T05:57:26.731Z,75.23
2023-05-22T05:58:26.719Z,75.53
2023-05-22T05:59:26.704Z,75.03
2023-05-22T06:00:26.693Z,75.89
2023-05-22T06:01:26.683Z,75.12
2023-05-22T06:02:26.770Z,74.86
2023-05-22T06:03:26.748Z,75.50
2023-05-22T06:04:26.646Z,74.49
2023-05-22T06:05:26.689Z,74.49
2023-05-22T06:06:26.617Z,73.76
2023-05-22T06:08:26.604Z,73.82
2023-05-22T06:09:26.579Z,74.99
2023-05-22T06:10:26.576Z,72.45
2023-05-22T06:11:26.569Z,71.38
2023-05-22T06:12:26.540Z,69.65
2023-05-22T06:13:26.571Z,68.72
2023-05-22T06:14:26.520Z,69.32
2023-05-22T06:15:26.499Z,69.39
2023-05-22T06:16:26.518Z,68.23
2023-05-22T06:17:26.492Z,69.42
2023-05-22T06:18:26.465Z,67.86
2023-05-22T06:19:26.486Z,67.56
2023-05-22T06:20:26.439Z,67.26
2023-05-22T06:21:26.503Z,69.45
2023-05-22T06:22:26.417Z,67.53
2023-05-22T06:23:26.399Z,67.66
2023-05-22T06:24:26.391Z,66.34
2023-05-22T06:25:26.370Z,65.08
2023-05-22T06:26:26.362Z,64.75
2023-05-22T06:27:26.349Z,65.24
2023-05-22T06:28:26.343Z,64.69
2023-05-22T06:29:26.372Z,63.29
2023-05-22T06:30:38.887Z,64.28
2023-05-22T06:31:28.303Z,66.57
2023-05-22T06:32:26.380Z,66.67
2023-05-22T06:33:26.360Z,66.07
2023-05-22T06:34:26.372Z,67.00
2023-05-22T06:35:26.252Z,66.37
2023-05-22T06:36:26.237Z,66.57
2023-05-22T06:37:26.380Z,68.32
2023-05-22T06:38:26.213Z,66.77
2023-05-22T06:39:26.201Z,67.10
2023-05-22T06:40:26.191Z,67.37
2023-05-22T06:41:26.180Z,66.63
2023-05-22T06:42:26.183Z,65.18
2023-05-22T06:43:26.149Z,65.28
2023-05-22T06:44:26.204Z,64.25
2023-05-22T06:45:26.127Z,63.56
2023-05-22T06:46:26.363Z,63.69
2023-05-22T06:47:26.134Z,66.14
2023-05-22T06:48:26.092Z,66.33
2023-05-22T06:49:26.088Z,68.82
2023-05-22T06:50:26.062Z,70.19
2023-05-22T06:51:26.085Z,69.06
2023-05-22T06:52:26.033Z,68.32
2023-05-22T06:53:26.130Z,66.77
2023-05-22T06:54:26.013Z,66.24
2023-05-22T06:55:26.000Z,64.88
2023-05-22T06:56:25.994Z,63.79
2023-05-22T06:57:25.976Z,64.69
2023-05-22T06:58:25.964Z,63.46
2023-05-22T06:59:25.956Z,62.51
2023-05-22T07:00:25.946Z,62.41
2023-05-22T07:01:25.951Z,62.21
2023-05-22T07:02:25.983Z,61.46
2023-05-22T07:03:25.904Z,60.66
2023-05-22T07:04:25.892Z,59.91
2023-05-22T07:05:25.896Z,60.21
2023-05-22T07:06:25.868Z,59.09
2023-05-22T07:07:25.853Z,57.95
2023-05-22T07:08:26.850Z,57.03
2023-05-22T07:09:25.852Z,56.53
2023-05-22T07:10:25.808Z,56.43
2023-05-22T07:11:25.802Z,56.70
2023-05-22T07:12:25.787Z,56.43
2023-05-22T07:13:25.779Z,57.78
2023-05-22T07:14:25.767Z,57.58
2023-05-22T07:15:25.761Z,57.67
2023-05-22T07:16:25.760Z,57.61
2023-05-22T07:17:25.782Z,59.67
2023-05-22T07:18:25.720Z,59.67
2023-05-22T07:19:25.761Z,61.77
2023-05-22T07:20:25.769Z,64.02
2023-05-22T07:21:25.683Z,63.99
2023-05-22T07:22:25.668Z,62.93
2023-05-22T07:23:26.472Z,61.38
2023-05-22T07:24:25.649Z,60.33
2023-05-22T07:25:25.656Z,58.92
2023-05-22T07:26:25.620Z,58.92
2023-05-22T07:27:25.606Z,59.41
2023-05-22T07:28:25.594Z,58.99
2023-05-22T07:29:25.584Z,58.50
2023-05-22T07:30:25.572Z,57.87
2023-05-22T07:31:25.590Z,57.35
2023-05-22T07:32:25.577Z,56.14
2023-05-22T07:33:25.550Z,55.42
2023-05-22T07:34:25.594Z,55.94
2023-05-22T07:35:25.513Z,56.24
2023-05-22T07:36:25.495Z,56.34
2023-05-22T07:37:25.500Z,55.84
2023-05-22T07:38:25.477Z,55.52
2023-05-22T07:39:25.466Z,55.08
2023-05-22T07:40:26.537Z,58.71
2023-05-22T07:41:25.664Z,59.21
2023-05-22T07:42:25.428Z,59.54
2023-05-22T07:43:25.411Z,58.33
2023-05-22T07:44:25.413Z,58.63
2023-05-22T07:45:25.407Z,57.48
2023-05-22T07:46:25.411Z,56.76
2023-05-22T07:47:25.417Z,55.92
2023-05-22T07:48:25.393Z,55.00
2023-05-22T07:49:25.338Z,53.49
2023-05-22T07:50:25.417Z,53.05
2023-05-22T07:51:25.323Z,52.72
2023-05-22T07:52:25.313Z,51.49
2023-05-22T07:53:25.300Z,48.71
2023-05-22T07:54:25.282Z,48.39
2023-05-22T07:55:25.271Z,48.10
2023-05-22T07:56:25.255Z,48.49
2023-05-22T07:57:25.519Z,48.27
2023-05-22T07:58:25.229Z,47.95
2023-05-22T07:59:25.214Z,48.39
2023-05-22T08:00:25.263Z,48.27
2023-05-22T08:01:25.392Z,47.97
2023-05-22T08:02:25.221Z,47.76
2023-05-22T08:03:25.360Z,47.63
2023-05-22T08:04:25.298Z,46.72
2023-05-22T08:05:25.137Z,45.94
2023-05-22T08:06:25.245Z,44.78
2023-05-22T08:07:25.118Z,46.94
2023-05-22T08:08:25.097Z,46.72
2023-05-22T08:09:25.084Z,46.69
2023-05-22T08:10:26.426Z,46.20
2023-05-22T08:11:25.063Z,45.50
2023-05-22T08:12:25.048Z,44.49
2023-05-22T08:13:25.165Z,45.58
2023-05-22T08:14:25.024Z,47.35
2023-05-22T08:15:25.019Z,47.87
2023-05-22T08:16:25.089Z,48.07
2023-05-22T08:17:25.113Z,48.14
2023-05-22T08:18:24.977Z,47.72
2023-05-22T08:19:25.033Z,46.91
2023-05-22T08:20:24.991Z,46.60
2023-05-22T08:21:24.959Z,46.38
2023-05-22T08:22:24.929Z,46.36
2023-05-22T08:23:24.919Z,46.26
2023-05-22T08:24:24.904Z,45.84
2023-05-22T08:25:24.893Z,45.64
2023-05-22T08:26:24.876Z,45.03
2023-05-22T08:27:24.868Z,45.45
2023-05-22T08:28:24.858Z,46.08
2023-05-22T08:29:25.174Z,46.58
2023-05-22T08:30:24.991Z,46.38
2023-05-22T08:31:24.884Z,46.58
2023-05-22T08:32:24.901Z,46.18
2023-05-22T08:33:24.818Z,46.36
2023-05-22T08:34:24.783Z,46.26
2023-05-22T08:35:24.804Z,45.82
2023-05-22T08:36:24.759Z,45.89
2023-05-22T08:37:24.747Z,47.19
2023-05-22T08:38:24.747Z,48.07
2023-05-22T08:39:24.766Z,47.26
2023-05-22T08:40:24.754Z,45.98
2023-05-22T08:41:24.712Z,45.34
2023-05-22T08:42:24.686Z,45.12
2023-05-22T08:43:24.680Z,45.03
2023-05-22T08:44:24.668Z,44.49
2023-05-22T08:45:24.778Z,44.25
2023-05-22T08:46:24.648Z,43.84
2023-05-22T08:47:24.668Z,43.81
2023-05-22T08:48:24.623Z,44.35
2023-05-22T08:49:24.610Z,45.08
2023-05-22T08:50:24.591Z,48.83
2023-05-22T08:51:24.582Z,54.41
2023-05-22T08:52:30.579Z,56.67
2023-05-22T08:53:24.557Z,56.77
2023-05-22T08:54:24.549Z,55.60
2023-05-22T08:55:24.538Z,53.52
2023-05-22T08:56:25.530Z,51.04
2023-05-22T08:57:24.511Z,50.09
2023-05-22T08:58:24.501Z,49.37
2023-05-22T08:59:24.492Z,50.39
2023-05-22T09:00:24.491Z,51.73
2023-05-22T09:01:24.522Z,51.49
2023-05-22T09:02:24.463Z,51.47
2023-05-22T09:03:24.521Z,52.08
2023-05-22T09:04:24.423Z,51.07
2023-05-22T09:05:24.416Z,52.60
2023-05-22T09:06:24.403Z,52.08
2023-05-22T09:07:24.393Z,52.60
2023-05-22T09:08:24.380Z,51.93
2023-05-22T09:09:24.369Z,50.21
2023-05-22T09:10:24.352Z,52.30
2023-05-22T09:11:24.351Z,52.18
2023-05-22T09:12:24.337Z,51.54
2023-05-22T09:13:24.334Z,50.01
2023-05-22T09:14:24.309Z,49.38
2023-05-22T09:15:24.310Z,49.31
2023-05-22T09:16:24.301Z,51.04
2023-05-22T09:17:24.436Z,50.70
2023-05-22T09:18:24.284Z,48.84
2023-05-22T09:19:24.353Z,49.23
2023-05-22T09:20:24.251Z,49.31
2023-05-22T09:21:30.006Z,49.57
2023-05-22T09:22:26.221Z,49.16
2023-05-22T09:23:24.223Z,48.62
2023-05-22T09:24:24.212Z,47.08
2023-05-22T09:25:24.193Z,45.06
2023-05-22T09:26:24.177Z,43.96
2023-05-22T09:27:24.188Z,43.67
2023-05-22T09:28:24.162Z,43.12
2023-05-22T09:29:24.153Z,43.43
2023-05-22T09:30:24.131Z,44.10
2023-05-22T09:31:24.218Z,45.81
2023-05-22T09:32:24.193Z,45.27
2023-05-22T09:33:24.161Z,48.79
2023-05-22T09:34:24.078Z,49.20
2023-05-22T09:35:24.083Z,51.39
2023-05-22T09:36:24.058Z,50.92
2023-05-22T09:37:24.044Z,50.21
2023-05-22T09:38:24.038Z,49.55
2023-05-22T09:39:24.023Z,51.32
2023-05-22T09:40:24.014Z,51.93
2023-05-22T09:41:23.996Z,55.34
2023-05-22T09:42:23.985Z,54.89
2023-05-22T09:43:23.981Z,53.24
2023-05-22T09:44:23.969Z,51.76
2023-05-22T09:45:23.986Z,52.06
2023-05-22T09:46:23.979Z,51.00
2023-05-22T09:47:23.966Z,51.04
2023-05-22T09:48:23.920Z,51.83
2023-05-22T09:49:23.945Z,52.89
2023-05-22T09:50:23.897Z,52.45
2023-05-22T09:51:23.881Z,50.01
2023-05-22T09:52:23.871Z,49.10
2023-05-22T09:53:23.859Z,51.00
2023-05-22T09:54:23.852Z,52.03
2023-05-22T09:55:23.882Z,53.39
2023-05-22T09:56:31.112Z,53.32
2023-05-22T09:57:25.813Z,54.63
2023-05-22T09:58:23.800Z,56.32
2023-05-22T09:59:23.824Z,56.29
2023-05-22T10:00:23.783Z,54.01
2023-05-22T10:01:23.780Z,52.75
2023-05-22T10:02:23.958Z,52.38
2023-05-22T10:03:23.749Z,52.80
2023-05-22T10:04:23.781Z,53.49
2023-05-22T10:05:23.755Z,53.12
2023-05-22T10:06:23.709Z,53.36
2023-05-22T10:07:23.694Z,51.20
2023-05-22T10:08:23.682Z,50.46
2023-05-22T10:09:23.671Z,50.36
2023-05-22T10:10:23.671Z,49.03
2023-05-22T10:11:23.649Z,47.76
2023-05-22T10:12:23.638Z,46.81
2023-05-22T10:13:23.661Z,45.30
2023-05-22T10:14:23.618Z,44.47
2023-05-22T10:15:23.613Z,43.55
2023-05-22T10:16:23.624Z,45.73
2023-05-22T10:17:23.599Z,45.83
2023-05-22T10:18:23.574Z,45.52
2023-05-22T10:19:23.668Z,44.90
2023-05-22T10:20:23.552Z,44.28
2023-05-22T10:21:23.653Z,43.72
2023-05-22T10:22:23.518Z,44.59
2023-05-22T10:23:23.520Z,44.22
2023-05-22T10:24:23.500Z,45.66
2023-05-22T10:25:23.490Z,46.80
2023-05-22T10:26:23.483Z,48.20
2023-05-22T10:27:23.470Z,47.05
2023-05-22T10:28:23.457Z,47.51
2023-05-22T10:29:23.452Z,47.61
2023-05-22T10:30:23.439Z,47.34
2023-05-22T10:31:23.424Z,46.80
2023-05-22T10:32:23.434Z,45.46
2023-05-22T10:33:23.571Z,44.71
2023-05-22T10:34:23.402Z,43.22
2023-05-22T10:35:23.374Z,45.88
2023-05-22T10:36:23.367Z,46.34
2023-05-22T10:37:23.625Z,45.75
2023-05-22T10:38:23.344Z,46.07
2023-05-22T10:39:23.329Z,46.17
2023-05-22T10:40:23.323Z,46.39
2023-05-22T10:41:23.311Z,48.93
2023-05-22T10:42:23.339Z,49.43
2023-05-22T10:43:23.281Z,49.06
2023-05-22T10:44:23.271Z,48.93
2023-05-22T10:45:23.256Z,47.86
2023-05-22T10:46:23.310Z,46.24
2023-05-22T10:47:23.270Z,47.39
2023-05-22T10:48:23.218Z,47.47
2023-05-22T10:49:23.210Z,49.89
2023-05-22T10:50:23.202Z,51.86
2023-05-22T10:51:23.200Z,51.04
2023-05-22T10:52:23.175Z,48.15
2023-05-22T10:53:23.298Z,43.67
2023-05-22T10:54:23.150Z,43.90
2023-05-22T10:55:23.140Z,43.06
2023-05-22T10:56:25.488Z,42.21
2023-05-22T10:57:23.120Z,40.96
2023-05-22T10:58:23.109Z,41.40
2023-05-22T10:59:23.085Z,44.98
2023-05-22T11:00:23.079Z,44.68
2023-05-22T11:01:23.093Z,45.12
2023-05-22T11:02:23.131Z,44.22
2023-05-22T11:03:23.126Z,43.18
2023-05-22T11:04:23.046Z,42.38
2023-05-22T11:05:23.021Z,42.16
2023-05-22T11:06:23.019Z,41.72
2023-05-22T11:07:22.998Z,44.22
2023-05-22T11:08:22.987Z,43.20
2023-05-22T11:09:23.094Z,42.08
2023-05-22T11:10:22.960Z,42.04
2023-05-22T11:11:22.947Z,41.22
2023-05-22T11:12:22.942Z,39.70
2023-05-22T11:13:22.930Z,39.41
2023-05-22T11:14:22.918Z,39.39
2023-05-22T11:15:22.901Z,38.98
2023-05-22T11:16:22.918Z,38.15
2023-05-22T11:17:22.880Z,37.56
2023-05-22T11:18:22.875Z,37.28
2023-05-22T11:19:24.009Z,37.26
2023-05-22T11:20:22.845Z,36.71
2023-05-22T11:21:22.838Z,35.82
2023-05-22T11:22:22.825Z,36.54
2023-05-22T11:23:22.811Z,36.63
2023-05-22T11:24:22.801Z,36.73
2023-05-22T11:25:22.908Z,37.33
2023-05-22T11:26:23.061Z,37.66
2023-05-22T11:27:22.771Z,38.36
2023-05-22T11:28:22.758Z,38.96
2023-05-22T11:29:22.754Z,39.47
2023-05-22T11:30:22.730Z,41.20
2023-05-22T11:31:22.816Z,42.29
2023-05-22T11:32:22.710Z,41.88
2023-05-22T11:33:22.760Z,42.84
2023-05-22T11:34:22.696Z,42.43
2023-05-22T11:35:22.709Z,45.78
2023-05-22T11:36:22.671Z,46.75
2023-05-22T11:37:22.656Z,50.34
2023-05-22T11:38:22.640Z,50.18
2023-05-22T11:39:22.634Z,48.27
2023-05-22T11:40:22.624Z,46.52
2023-05-22T11:41:22.725Z,46.64
2023-05-22T11:42:22.598Z,48.47
2023-05-22T11:43:22.583Z,47.86
2023-05-22T11:44:22.585Z,48.32
2023-05-22T11:45:22.564Z,50.65
2023-05-22T11:46:22.572Z,49.96
2023-05-22T11:47:22.549Z,46.42
2023-05-22T11:48:22.527Z,44.74
2023-05-22T11:49:22.514Z,44.04
2023-05-22T11:50:29.852Z,43.43
2023-05-22T11:51:24.495Z,42.82
2023-05-22T11:52:22.487Z,42.24
2023-05-22T11:53:22.467Z,41.51
2023-05-22T11:54:22.451Z,41.16
2023-05-22T11:55:22.439Z,40.07
2023-05-22T11:56:22.432Z,39.89
2023-05-22T11:57:22.443Z,40.28
2023-05-22T11:58:22.422Z,40.87
2023-05-22T11:59:22.404Z,39.64
2023-05-22T12:00:22.412Z,38.73
2023-05-22T12:01:22.369Z,38.75
2023-05-22T12:02:22.427Z,39.70
2023-05-22T12:03:23.458Z,39.88
2023-05-22T12:04:22.409Z,38.86
2023-05-22T12:05:22.333Z,38.84
2023-05-22T12:06:22.385Z,38.45
2023-05-22T12:07:22.296Z,39.99
2023-05-22T12:08:22.292Z,40.91
2023-05-22T12:09:22.305Z,42.87
2023-05-22T12:10:22.263Z,44.15
2023-05-22T12:11:22.252Z,43.96
2023-05-22T12:12:22.750Z,46.44
2023-05-22T12:13:22.358Z,45.71
2023-05-22T12:14:22.220Z,43.94
2023-05-22T12:15:22.209Z,42.04
2023-05-22T12:16:22.316Z,40.30
2023-05-22T12:17:22.184Z,39.89
2023-05-22T12:18:22.184Z,38.88
2023-05-22T12:19:22.196Z,38.96
2023-05-22T12:20:22.157Z,41.22
2023-05-22T12:21:22.142Z,40.52
2023-05-22T12:22:23.235Z,41.63
2023-05-22T12:23:22.134Z,41.40
2023-05-22T12:24:22.134Z,40.93
2023-05-22T12:25:22.093Z,43.89
2023-05-22T12:26:22.092Z,42.67
2023-05-22T12:27:22.068Z,44.42
2023-05-22T12:28:22.070Z,45.10
2023-05-22T12:29:22.196Z,43.79
2023-05-22T12:30:22.056Z,45.12
2023-05-22T12:31:22.021Z,45.53
2023-05-22T12:32:22.215Z,44.73
2023-05-22T12:33:21.996Z,45.22
2023-05-22T12:34:21.992Z,44.20
2023-05-22T12:35:22.006Z,43.49
2023-05-22T12:36:21.977Z,44.22
2023-05-22T12:37:21.965Z,44.32
2023-05-22T12:38:21.939Z,44.29
2023-05-22T12:39:21.926Z,42.26
2023-05-22T12:40:21.940Z,41.54
2023-05-22T12:41:21.905Z,40.91
2023-05-22T12:42:21.896Z,39.60
2023-05-22T12:43:21.881Z,41.34
2023-05-22T12:44:21.868Z,40.85
2023-05-22T12:45:21.982Z,38.83
2023-05-22T12:46:21.891Z,38.11
2023-05-22T12:47:21.833Z,37.37
2023-05-22T12:48:21.821Z,36.85
2023-05-22T12:49:21.810Z,37.22
2023-05-22T12:50:21.796Z,36.04
2023-05-22T12:51:21.784Z,36.12
2023-05-22T12:52:21.774Z,37.12
2023-05-22T12:53:21.767Z,37.92
2023-05-22T12:54:21.752Z,39.39